MET: Información y Pronóstico Aeronáutico

///////////////////////////////////////////////////////////////////////////////////////////////////////////////////////////////////////////////////////////////////////////////////////////////////////////////////////////////////////////////

Member for

2 años 6 meses
Enviado por meteorologia el Jue, 23/11/2017 - 11:39
21/1

21 DE ENERO 2021

INFORMACION METEOROLOGICA AERONAUTICA (METAR) 12:00 UTC

Aeropuerto AEROPARQUE J. NEWBERY

21 - 12:00  METAR SABE 211200Z 03007KT CAVOK 24/19 Q1021 NOSIG =

Aeropuerto BAHIA BLANCA

21 - 12:00  METAR SAZB 211200Z 36015KT CAVOK 29/14 Q1017 =

Aeropuerto BARILOCHE

21 - 12:00  METAR SAZS 211200Z 00000KT CAVOK 17/05 Q1019 =

Aeropuerto CATAMARCA

21 - 12:00  METAR SANC 211200Z 36013KT 9999 NSC 26/16 Q1016 =

Aeropuerto CHAPELCO

21 - 12:00  METAR SAZY 211200Z VRB03KT CAVOK 16/08 Q1017 =

Aeropuerto COMODORO RIVADAVIA

21 - 12:00  METAR SAVC 211200Z 28015G26KT 230V330 CAVOK 25/12 Q1011 =

Aeropuerto CORDOBA

21 - 12:00  METAR SACO 211200Z 27003KT CAVOK 24/13 Q1018 NOSIG =

Aeropuerto CORRIENTES

21 - 12:00  METAR SARC 211200Z 14013KT CAVOK 26/21 Q1013 =

Aeropuerto EL CALAFATE

21 - 12:00  METAR SAWC 211200Z 05002KT 9999 FEW040 16/04 Q1005 =

Aeropuerto EL PALOMAR

21 - 12:00  METAR SADP 211200Z 05006KT 010V090 CAVOK 25/17 Q1020 =

Aeropuerto ESQUEL

21 - 12:00  METAR SAVE 211200Z 29011KT CAVOK 19/08 Q1017 =

Aeropuerto EZEIZA

21 - 12:00  METAR SAEZ 211200Z 03008KT CAVOK 26/19 Q1020 NOSIG =

Aeropuerto FORMOSA

21 - 12:00  METAR SARF 211200Z 14008KT 9999 BKN018 26/23 Q1012 =

Aeropuerto IGUAZU/CATARATAS

21 - 12:00  METAR SARI 211200Z 07004KT 9999 SCT009 BKN050 23/22 Q1015 =

Aeropuerto JUJUY

21 - 12:00  METAR SASJ 211200Z 32008KT CAVOK 22/13 Q1019 =

Aeropuerto LA RIOJA

21 - 12:00  METAR SANL 211200Z 18006KT CAVOK 24/15 Q1017 =

Aeropuerto MALARGUE

21 - 12:00  METAR SAMM 211200Z 18008KT CAVOK 19/05 Q1021 =

Aeropuerto MAR DEL PLATA

21 - 12:00  METAR SAZM 211200Z 34013KT CAVOK 24/21 Q1021 =

Aeropuerto MENDOZA

21 - 12:00  METAR SAME 211200Z 09004KT CAVOK 25/08 Q1016 =

Aeropuerto MORON

21 - 12:00  METAR SADM 211200Z 02005KT CAVOK 25/18 Q1020 =

Aeropuerto NEUQUEN

21 - 12:00  METAR SAZN 211200Z 02001KT CAVOK 28/16 Q1012 =

Aeropuerto PARANA

21 - 12:00  METAR SAAP 211200Z 07007KT CAVOK 23/17 Q1018 =

Aeropuerto POSADAS

21 - 12:00  METAR SARP 211200Z 09005KT 5000 -DZ SCT015 OVC080 25/23 Q1014 =

Aeropuerto PUERTO MADRYN

21 - 12:00  METAR SAVY 211200Z 16008KT 9999 FEW030 SCT200 27/08 Q1012 =

Aeropuerto RECONQUISTA

21 - 12:00  METAR SATR 211200Z 11010KT CAVOK 25/20 Q1015 =

Aeropuerto RESISTENCIA

21 - 12:00  METAR SARE 211200Z 11008KT 8000 NSC 26/20 Q1013 =

Aeropuerto RIO CUARTO

21 - 12:00  METAR SAOC 211200Z 36008G18KT CAVOK 24/12 Q1017 =

Aeropuerto RIO GALLEGOS

21 - 12:00  METAR SAWG 211200Z 04005KT CAVOK 13/05 Q1006 =

Aeropuerto RIO GRANDE

21 - 12:00  METAR SAWE 211200Z 29015KT CAVOK 11/07 Q1004 =

Aeropuerto ROSARIO

21 - 12:00  METAR SAAR 211200Z 05008KT CAVOK 23/15 Q1018 =

Aeropuerto SALTA

21 - 12:00  METAR SASA 211200Z 18002KT CAVOK 18/11 Q1021 =

Aeropuerto SAN FERNANDO

21 - 12:00  METAR SADF 211200Z 05006KT CAVOK 24/18 Q1020 =

Aeropuerto SAN JUAN

21 - 12:00  METAR SANU 211200Z 05004KT CAVOK 25/10 Q1016 =

Aeropuerto SAN LUIS

21 - 12:00  METAR SAOU 211200Z 34006KT CAVOK 25/11 Q1018 =

Aeropuerto SAN RAFAEL

21 - 12:00  METAR SAMR 211200Z 36002KT CAVOK 24/11 Q1016 =

Aeropuerto SANTA ROSA

21 - 12:00  METAR SAZR 211200Z 36017KT CAVOK 25/17 Q1016 =

Aeropuerto SANTIAGO DEL ESTERO

21 - 12:00  METAR SANE 211200Z 00000KT CAVOK 26/19 Q1016 =

Aeropuerto SAUCE VIEJO

21 - 12:00  METAR SAAV 211200Z 09009KT CAVOK 23/17 Q1017 =

Aeropuerto TANDIL

21 - 12:00  METAR SAZT 211200Z 36009KT CAVOK 22/18 Q1021 =

Aeropuerto TERMAS DE RIO HONDO

21 - 12:00  METAR SANR 211200Z 09003KT 9999 FEW040 SCT100 24/18 Q1016 =

Aeropuerto TRELEW

21 - 12:00  METAR SAVT 211200Z 25005KT CAVOK 26/11 Q1013 =

Aeropuerto TUCUMAN

21 - 12:00  METAR SANT 211200Z 32004KT CAVOK 22/17 Q1017 =

Aeropuerto USHUAIA

21 - 12:00  METAR SAWH 211200Z 23010KT 9999 FEW045 10/04 Q1001 =

Aeropuerto VIEDMA

21 - 12:00  METAR SAVV 211200Z 32016KT CAVOK 29/16 Q1014 =

Aeropuerto VILLA REYNOLDS

21 - 12:00  METAR SAOR 211200Z 00000KT CAVOK 24/14 Q1017 =

 PRONOSTICO DE AERODROMO (TAF) 11:00 UTC

Estación AEROPARQUE J. NEWBERY

21 - 11:00  TAF SABE 211100Z 2112/2212 03010KT CAVOK TX30/2118Z TN23/2209Z BECMG 2117/2119 10015KT BECMG 2202/2205 05015KT =

Estación BAHIA BLANCA

21 - 11:00  TAF SAZB 211100Z 2112/2212 36010KT CAVOK TX35/2119Z TN17/2208Z BECMG 2114/2116 34020KT BECMG 2123/2201 02015KT =

Estación BARILOCHE

21 - 11:00  TAF SAZS 211100Z 2112/2212 VRB05KT CAVOK TX31/2119Z TN10/2209Z BECMG 2116/2119 29015KT BECMG 2123/2202 27005KT BECMG 2202/2204 15005KT =

Estación CATAMARCA

21 - 11:00  TAF SANC 211100Z 2112/2212 36015KT CAVOK TX36/2119Z TN17/2209Z BECMG 2115/2118 02015G25KT BECMG 2200/2203 02015KT =

Estación CHAPELCO

21 - 11:00  TAF SAZY 211100Z 2112/2212 NIL =

Estación COMODORO RIVADAVIA

21 - 11:00  TAF SAVC 211100Z 2112/2212 29020KT 9999 FEW030 SCT090 TX34/2120Z TN20/2210Z PROB40 TEMPO 2112/2116 29020G30KT =

Estación CORDOBA

21 - 11:00  TAF SACO 211100Z 2112/2212 31005KT CAVOK TX34/2119Z TN17/2209Z BECMG 2115/2117 09010KT BECMG 2200/2203 31005KT =

Estación CORRIENTES

21 - 11:00  TAF SARC 211100Z 2112/2212 14010KT 9999 SCT030 TX35/2119Z TN22/2209Z PROB40 2116/2124 5000 TSRA SCT030 FEW050CB BECMG 2200/2202 CAVOK =

Estación EL CALAFATE

21 - 11:00  TAF SAWC 211100Z 2112/2212 29015KT 9999 FEW030 SCT090 TX17/2119Z TN08/2211Z BECMG 2202/2204 25015KT SCT030 SCT090 =

Estación EL PALOMAR

21 - 11:00  TAF SADP 211100Z 2112/2212 05010KT CAVOK TX34/2119Z TN22/2209Z BECMG 2118/2120 09015G25KT BECMG 2205/2207 05010KT =

Estación ESQUEL

21 - 11:00  TAF SAVE 211100Z 2112/2212 30015KT CAVOK TX28/2120Z TN12/2211Z BECMG 2122/2124 VRB05KT =

Estación EZEIZA

21 - 11:00  TAF SAEZ 211100Z 2112/2212 05010KT CAVOK TX34/2119Z TN22/2209Z BECMG 2118/2120 09015G25KT BECMG 2205/2207 05010KT =

Estación FORMOSA

21 - 11:00  TAF SARF 211100Z 2112/2212 14010KT 9999 SCT015 TX36/2119Z TN21/2209Z PROB40 2114/2124 5000 TSRA SCT030 FEW050CB BECMG 2200/2202 CAVOK =

Estación IGUAZU/CATARATAS

21 - 11:00  TAF SARI 211100Z 2112/2212 09005KT 5000 RA BKN010 BKN040 TX32/2119Z TN21/2209Z BECMG 2113/2115 5000 TSRA SCT030 FEW050CB =

Estación JUJUY

21 - 11:00  TAF SASJ 211100Z 2112/2212 32005KT CAVOK TX31/2119Z TN15/2209Z BECMG 2117/2119 09010KT BECMG 2120/2122 BKN030 FEW040TCU BKN100 =

Estación LA RIOJA

21 - 11:00  TAF SANL 211100Z 2112/2212 18005KT CAVOK TX36/2119Z TN21/2209Z BECMG 2116/2118 02010KT BECMG 2200/2203 31005KT =

Estación MAR DEL PLATA

21 - 11:00  TAF SAZM 211100Z 2112/2212 34007KT 9999 FEW006 TX30/2217Z TN17/2209Z BECMG 2112/2114 34010KT CAVOK BECMG 2117/2120 05015G25KT CAVOK BECMG 2201/2203 02010KT TEMPO 2206/2210 02005KT 0800 FG OVC008 BECMG 2210/2212 3000 BR SCT005 SCT010 =

Estación MENDOZA

21 - 11:00  TAF SAME 211100Z 2111/2211 05005KT 9999 FEW040 TX37/2120Z TN21/2210Z BECMG 2122/2124 09005KT 9999 FEWTCU =

Estación NEUQUEN

21 - 11:00  TAF SAZN 211100Z 2112/2212 VRB05KT CAVOK TX40/2119Z TN24/2209Z BECMG 2117/2120 02010KT =

Estación PARANA

21 - 11:00  TAF SAAP 211100Z 2112/2212 09008KT CAVOK TX33/2119Z TN21/2209Z =

Estación POSADAS

21 - 11:00  TAF SARP 211100Z 2112/2212 14010KT 9999 BKN020 TX34/2119Z TN21/2209Z BECMG 2113/2115 5000 TSRA SCT030 FEW050CB =

Estación RESISTENCIA

21 - 11:00  TAF SARE 211100Z 2112/2212 12010KT CAVOK TX36/2119Z TN20/2209Z BECMG 2113/2115 9999 SCT035 PROB40 2118/2124 5000 TSRA SCT030 FEW050CB BECMG 2200/2202 CAVOK =

Estación RIO CUARTO

21 - 11:00  TAF SAOC 211100Z 2112/2212 36005KT CAVOK TX34/2119Z TN16/2209Z BECMG 2115/2118 02015G25KT BECMG 2200/2203 02015KT =

Estación RIO GALLEGOS

21 - 11:00  TAF SAWG 211100Z 2112/2212 02020KT 9999 SCT030 SCT090 TX16/2120Z TN08/2210Z PROB40 TEMPO 2114/2117 02020G30KT BECMG 2116/2118 BKN030 BKN060 PROB40 TEMPO 2119/2124 25015KT -RA =

Estación RIO GRANDE

21 - 11:00  TAF SAWE 211100Z 2112/2212 32015KT 9999 SCT020 TX14/2119Z TN07/2210Z BECMG 2115/2116 -RA OVC020 PROB40 TEMPO 2117/2120 5000 RADZ SCT012 OVC020 BECMG 2120/2121 29015G25KT NSW BKN020 BECMG 2201/2203 CAVOK =

Estación ROSARIO

21 - 11:00  TAF SAAR 211100Z 2112/2212 09010KT CAVOK TX33/2119Z TN20/2209Z =

Estación SALTA

21 - 11:00  TAF SASA 211100Z 2112/2212 18005KT CAVOK TX29/2119Z TN13/2209Z BECMG 2117/2119 16010KT BKN030 FEW040TCU BKN100 =

Estación SAN FERNANDO

21 - 11:00  TAF SADF 211100Z 2112/2212 02010KT CAVOK TX31/2119Z TN20/2209Z BECMG 2118/2120 09015KT BECMG 2203/2205 05010KT =

Estación SAN JUAN

21 - 11:00  TAF SANU 211100Z 2112/2212 09005KT CAVOK TX39/2120Z TN20/2210Z BECMG 2118/2120 05010KT 9999 FEW040TCU =

Estación SAN LUIS

21 - 11:00  TAF SAOU 211100Z 2112/2212 36005KT CAVOK TX36/2119Z TN20/2209Z BECMG 2120/2122 05005KT 9999 FEW040TCU =

Estación SAN RAFAEL

21 - 11:00  TAF SAMR 211100Z 2112/2212 36010KT 9999 FEW040 TX37/2120Z TN21/2210Z FEW040TCU =

Estación SANTA ROSA

21 - 11:00  TAF SAZR 211100Z 2112/2212 36010KT CAVOK TX35/2119Z TN18/2209Z BECMG 2114/2116 36015G25KT BECMG 2122/2124 02010KT =

Estación SANTIAGO DEL ESTERO

21 - 11:00  TAF SANE 211100Z 2112/2212 20005KT CAVOK TX35/2119Z TN20/2209Z BECMG 2115/2117 16010KT =

Estación SAUCE VIEJO

21 - 11:00  TAF SAAV 211100Z 2112/2212 10008KT CAVOK TX34/2119Z TN21/2209Z =

Estación TERMAS DE RIO HONDO

21 - 11:00  TAF SANR 211100Z 2112/2212 NIL =

Estación TRELEW

21 - 11:00  TAF SAVT 211100Z 2112/2212 16010KT 9999 FEW030TCU TX33/2120Z TN23/2210Z BECMG 2115/2117 07015KT BECMG 2200/2202 VRB07KT CAVOK }BECMG 2206/2208 20012KT =

Estación TUCUMAN

21 - 11:00  TAF SANT 211100Z 2112/2212 VRB03KT CAVOK TX33/2119Z TN18/2209Z =

Estación USHUAIA

21 - 11:00  TAF SAWH 211100Z 2112/2212 30010KT 9999 SCT030 TX14/2116Z TN02/2210Z PROB40 TEMPO 32020KT 5000 RA BKN030 OVC050 BECMG 2121/2123 SCT020 BKN030 BECMG 2202/2204 CAVOK =

Estación VIEDMA

21 - 11:00  TAF SAVV 211100Z 2112/2212 34015KT 9999 FEW030CB TX40/2120Z TN28/2211Z BECMG 2114/2116 CAVOK BECMG 2200/2202 36020G30KT =